createdAt,value
2018-07-02T00:00:10.775Z,60.40
2018-07-02T00:02:39.256Z,60.40
2018-07-02T00:05:08.034Z,61.50
2018-07-02T00:07:36.509Z,61.60
2018-07-02T00:10:05.506Z,62.90
2018-07-02T00:12:33.966Z,61.40
2018-07-02T00:15:02.556Z,62.20
2018-07-02T00:17:30.999Z,62.20
2018-07-02T00:19:59.455Z,62.70
2018-07-02T00:22:27.919Z,62.70
2018-07-02T00:24:56.371Z,63.10
2018-07-02T00:27:24.829Z,63.20
2018-07-02T00:29:53.265Z,63.50
2018-07-02T00:32:22.541Z,63.40
2018-07-02T00:34:50.993Z,63.90
2018-07-02T00:37:19.439Z,63.80
2018-07-02T00:39:47.946Z,63.90
2018-07-02T00:42:16.392Z,64.40
2018-07-02T00:44:44.841Z,64.70
2018-07-02T00:47:13.319Z,64.70
2018-07-02T00:49:41.742Z,65.50
2018-07-02T00:52:10.194Z,65.10
2018-07-02T00:54:38.664Z,65.30
2018-07-02T00:57:07.085Z,65.00
2018-07-02T00:59:35.537Z,65.50
2018-07-02T01:02:03.991Z,66.10
2018-07-02T01:04:32.499Z,66.10
2018-07-02T01:07:01.025Z,66.10
2018-07-02T01:09:29.483Z,66.80
2018-07-02T01:11:57.945Z,66.20
2018-07-02T01:14:26.485Z,67.30
2018-07-02T01:16:54.970Z,66.20
2018-07-02T01:19:23.426Z,68.70
2018-07-02T01:21:51.887Z,67.00
2018-07-02T01:24:20.341Z,67.40
2018-07-02T01:26:48.770Z,67.30
2018-07-02T01:29:17.262Z,67.40
2018-07-02T01:31:45.740Z,68.30
2018-07-02T01:34:14.196Z,67.80
2018-07-02T01:36:42.694Z,67.90
2018-07-02T01:39:11.767Z,67.70
2018-07-02T01:41:40.242Z,68.60
2018-07-02T01:44:08.687Z,69.20
2018-07-02T01:46:37.146Z,67.70
2018-07-02T01:49:05.627Z,68.90
2018-07-02T01:51:34.132Z,68.30
2018-07-02T01:54:02.651Z,68.80
2018-07-02T01:56:31.128Z,69.10
2018-07-02T01:58:59.565Z,68.80
2018-07-02T02:01:28.076Z,68.80
2018-07-02T02:03:56.557Z,69.30
2018-07-02T02:06:25.046Z,69.20
2018-07-02T02:08:53.526Z,69.70
2018-07-02T02:11:22.100Z,69.50
2018-07-02T02:13:50.554Z,69.60
2018-07-02T02:16:18.981Z,70.20
2018-07-02T02:18:47.459Z,69.70
2018-07-02T02:21:15.997Z,69.70
2018-07-02T02:23:44.479Z,69.80
2018-07-02T02:26:12.973Z,69.90
2018-07-02T02:28:41.419Z,71.20
2018-07-02T02:31:09.898Z,70.80
2018-07-02T02:33:38.421Z,70.70
2018-07-02T02:36:06.882Z,71.00
2018-07-02T02:38:35.332Z,70.90
2018-07-02T02:41:04.399Z,71.20
2018-07-02T02:43:32.862Z,71.30
2018-07-02T02:46:01.990Z,71.70
2018-07-02T02:48:30.542Z,71.50
2018-07-02T02:50:59.022Z,71.80
2018-07-02T02:53:27.492Z,72.20
2018-07-02T02:55:55.953Z,72.30
2018-07-02T02:58:24.438Z,72.50
2018-07-02T03:00:52.897Z,72.50
2018-07-02T03:03:22.258Z,72.30
2018-07-02T03:05:50.773Z,72.20
2018-07-02T03:08:19.259Z,72.60
2018-07-02T03:10:47.736Z,72.90
2018-07-02T03:13:16.205Z,72.50
2018-07-02T03:15:44.681Z,72.90
2018-07-02T03:18:13.179Z,73.10
2018-07-02T03:20:41.671Z,72.70
2018-07-02T03:23:10.146Z,72.90
2018-07-02T03:25:38.627Z,72.90
2018-07-02T03:28:07.326Z,73.00
2018-07-02T03:30:35.859Z,73.90
2018-07-02T03:33:04.277Z,73.00
2018-07-02T03:35:32.758Z,73.40
2018-07-02T03:38:01.205Z,73.70
2018-07-02T03:40:29.667Z,73.50
2018-07-02T03:42:58.156Z,73.80
2018-07-02T03:45:26.636Z,74.00
2018-07-02T03:47:55.069Z,73.30
2018-07-02T03:50:23.515Z,74.00
2018-07-02T03:52:51.962Z,73.60
2018-07-02T03:55:20.393Z,73.60
2018-07-02T03:57:48.886Z,74.90
2018-07-02T04:00:17.362Z,74.10
2018-07-02T04:02:45.828Z,74.50
2018-07-02T04:05:14.313Z,74.10
2018-07-02T04:07:42.800Z,73.90
2018-07-02T04:10:11.266Z,73.90
2018-07-02T04:12:39.757Z,74.00
2018-07-02T04:15:08.189Z,74.50
2018-07-02T04:17:36.630Z,74.50
2018-07-02T04:20:05.362Z,73.80
2018-07-02T04:22:33.793Z,74.50
2018-07-02T04:25:02.255Z,74.60
2018-07-02T04:27:30.759Z,74.50
2018-07-02T04:29:59.212Z,74.10
2018-07-02T04:32:27.693Z,75.10
2018-07-02T04:34:56.165Z,75.30
2018-07-02T04:37:24.622Z,75.10
2018-07-02T04:39:54.030Z,75.50
2018-07-02T04:42:22.505Z,80.10
2018-07-02T04:44:51.199Z,77.80
2018-07-02T04:47:19.750Z,76.40
2018-07-02T04:49:48.237Z,76.30
2018-07-02T04:52:16.743Z,76.20
2018-07-02T04:54:45.186Z,76.00
2018-07-02T04:57:13.667Z,76.10
2018-07-02T04:59:42.210Z,75.50
2018-07-02T05:02:10.719Z,75.60
2018-07-02T05:04:39.185Z,75.80
2018-07-02T05:07:07.660Z,75.70
2018-07-02T05:09:36.107Z,76.20
2018-07-02T05:12:04.877Z,75.70
2018-07-02T05:14:33.857Z,74.90
2018-07-02T05:17:02.315Z,75.70
2018-07-02T05:19:31.721Z,75.00
2018-07-02T05:22:00.146Z,75.00
2018-07-02T05:24:28.577Z,75.00
2018-07-02T05:26:57.020Z,74.50
2018-07-02T05:29:25.487Z,75.20
2018-07-02T05:31:53.967Z,74.60
2018-07-02T05:34:22.945Z,75.20
2018-07-02T05:36:51.411Z,74.80
2018-07-02T05:39:20.528Z,74.80
2018-07-02T05:41:49.033Z,74.70
2018-07-02T05:44:17.499Z,75.00
2018-07-02T05:46:45.958Z,74.50
2018-07-02T05:49:14.463Z,74.10
2018-07-02T05:51:42.902Z,74.30
2018-07-02T05:54:11.350Z,74.10
2018-07-02T05:56:39.828Z,74.10
2018-07-02T05:59:08.330Z,73.80
2018-07-02T06:01:36.799Z,73.50
2018-07-02T06:04:05.458Z,73.40
2018-07-02T06:06:33.945Z,73.50
2018-07-02T06:09:02.421Z,73.10
2018-07-02T06:11:30.924Z,73.80
2018-07-02T06:13:59.478Z,73.50
2018-07-02T06:16:28.202Z,74.30
2018-07-02T06:18:56.651Z,73.30
2018-07-02T06:21:25.245Z,72.50
2018-07-02T06:23:53.672Z,72.60
2018-07-02T06:26:22.325Z,72.50
2018-07-02T06:28:50.769Z,72.80
2018-07-02T06:31:19.229Z,71.80
2018-07-02T06:33:47.753Z,71.20
2018-07-02T06:36:16.224Z,71.40
2018-07-02T06:38:44.663Z,71.90
2018-07-02T06:41:13.130Z,71.70
2018-07-02T06:43:41.596Z,71.40
2018-07-02T06:46:10.091Z,72.00
2018-07-02T06:48:38.566Z,71.20
2018-07-02T06:51:07.454Z,70.90
2018-07-02T06:53:35.944Z,71.90
2018-07-02T06:56:04.413Z,72.00
2018-07-02T06:58:32.990Z,71.30
2018-07-02T07:01:01.465Z,71.00
2018-07-02T07:03:29.934Z,70.50
2018-07-02T07:05:58.378Z,71.20
2018-07-02T07:08:26.813Z,71.20
2018-07-02T07:10:56.257Z,71.70
2018-07-02T07:13:24.737Z,71.00
2018-07-02T07:15:53.253Z,68.60
2018-07-02T07:18:21.743Z,68.40
2018-07-02T07:20:50.226Z,68.20
2018-07-02T07:23:18.664Z,69.30
2018-07-02T07:25:47.139Z,68.60
2018-07-02T07:28:15.595Z,68.30
2018-07-02T07:30:44.038Z,69.20
2018-07-02T07:33:12.465Z,67.70
2018-07-02T07:35:40.898Z,69.00
2018-07-02T07:38:09.375Z,69.00
2018-07-02T07:40:37.824Z,68.70
2018-07-02T07:43:06.265Z,68.00
2018-07-02T07:45:35.419Z,65.00
2018-07-02T07:48:03.894Z,66.20
2018-07-02T07:50:32.361Z,65.00
2018-07-02T07:53:00.842Z,66.30
2018-07-02T07:55:29.341Z,65.30
2018-07-02T07:57:58.408Z,65.20
2018-07-02T08:00:26.894Z,63.50
2018-07-02T08:02:55.359Z,61.90
2018-07-02T08:05:23.858Z,63.20
2018-07-02T08:07:52.287Z,61.60
2018-07-02T08:10:20.763Z,58.90
2018-07-02T08:12:49.254Z,59.60
2018-07-02T08:15:17.771Z,56.40
2018-07-02T08:17:46.261Z,54.90
2018-07-02T08:20:15.486Z,50.90
2018-07-02T08:22:43.965Z,48.80
2018-07-02T08:25:12.446Z,49.60
2018-07-02T08:27:40.887Z,49.00
2018-07-02T08:30:09.317Z,45.50
2018-07-02T08:32:37.757Z,41.60
2018-07-02T08:35:06.239Z,43.60
2018-07-02T08:37:34.698Z,41.60
2018-07-02T08:40:03.199Z,38.40
2018-07-02T08:42:31.652Z,42.60
2018-07-02T08:45:00.210Z,37.20
2018-07-02T08:47:28.676Z,38.30
2018-07-02T08:49:57.128Z,34.60
2018-07-02T08:52:25.575Z,36.10
2018-07-02T08:54:54.075Z,37.20
2018-07-02T08:57:22.564Z,38.00
2018-07-02T08:59:51.052Z,36.00
2018-07-02T09:02:19.526Z,36.20
2018-07-02T09:04:47.970Z,36.50
2018-07-02T09:07:16.429Z,34.00
2018-07-02T09:09:44.873Z,34.10
2018-07-02T09:12:13.328Z,32.70
2018-07-02T09:14:41.806Z,32.60
2018-07-02T09:17:10.309Z,34.00
2018-07-02T09:19:38.837Z,30.80
2018-07-02T09:22:07.273Z,31.80
2018-07-02T09:24:35.746Z,32.70
2018-07-02T09:27:04.257Z,33.60
2018-07-02T09:29:32.738Z,33.90
2018-07-02T09:32:01.178Z,30.80
2018-07-02T09:34:30.404Z,31.60
2018-07-02T09:36:58.833Z,31.10
2018-07-02T09:39:27.371Z,31.90
2018-07-02T09:41:55.778Z,32.60
2018-07-02T09:44:24.209Z,31.80
2018-07-02T09:46:52.636Z,32.90
2018-07-02T09:49:21.083Z,30.80
2018-07-02T09:51:49.533Z,33.00
2018-07-02T09:54:17.992Z,32.80
2018-07-02T09:56:46.439Z,33.50
2018-07-02T09:59:14.917Z,33.80
2018-07-02T10:01:43.842Z,34.30
2018-07-02T10:04:12.257Z,33.50
2018-07-02T10:06:40.868Z,33.70
2018-07-02T10:09:11.653Z,34.30
2018-07-02T10:11:40.142Z,32.80
2018-07-02T10:14:08.594Z,34.10
2018-07-02T10:16:37.306Z,33.50
2018-07-02T10:19:05.730Z,33.20
2018-07-02T10:21:34.435Z,32.20
2018-07-02T10:24:03.658Z,36.50
2018-07-02T10:26:32.124Z,34.40
2018-07-02T10:29:00.594Z,35.20
2018-07-02T10:31:29.658Z,35.50
2018-07-02T10:33:58.893Z,33.40
2018-07-02T10:36:27.329Z,35.50
2018-07-02T10:38:55.785Z,37.10
2018-07-02T10:41:24.218Z,38.90
2018-07-02T10:43:52.701Z,36.60
2018-07-02T10:46:21.212Z,35.10
2018-07-02T10:48:49.694Z,35.60
2018-07-02T10:51:18.227Z,35.60
2018-07-02T10:53:46.725Z,35.80
2018-07-02T10:56:15.212Z,34.50
2018-07-02T10:58:43.735Z,34.80
2018-07-02T11:01:12.224Z,34.30
2018-07-02T11:03:40.806Z,35.50
2018-07-02T11:06:09.283Z,35.00
2018-07-02T11:08:37.787Z,35.30
2018-07-02T11:11:06.686Z,33.80
2018-07-02T11:13:35.139Z,34.50
2018-07-02T11:16:04.496Z,35.80
2018-07-02T11:18:33.576Z,37.80
2018-07-02T11:21:02.051Z,35.70
2018-07-02T11:23:30.537Z,36.40
2018-07-02T11:25:58.989Z,34.40
2018-07-02T11:28:28.255Z,38.60
2018-07-02T11:30:56.756Z,36.30
2018-07-02T11:33:25.186Z,34.80
2018-07-02T11:35:53.667Z,35.50
2018-07-02T11:38:23.173Z,35.30
2018-07-02T11:40:51.643Z,35.00
2018-07-02T11:43:20.110Z,35.50
2018-07-02T11:45:48.622Z,37.20
2018-07-02T11:48:17.074Z,35.60
2018-07-02T11:50:45.675Z,34.90
2018-07-02T11:53:14.332Z,37.00
2018-07-02T11:55:42.790Z,37.70
2018-07-02T11:58:11.221Z,39.80
2018-07-02T12:00:39.767Z,35.70
2018-07-02T12:03:08.233Z,35.90
2018-07-02T12:05:36.682Z,35.30
2018-07-02T12:08:05.377Z,35.80
2018-07-02T12:10:33.880Z,35.80
2018-07-02T12:13:02.369Z,35.60
2018-07-02T12:15:30.852Z,37.00
2018-07-02T12:17:59.597Z,37.00
2018-07-02T12:20:28.112Z,35.50
2018-07-02T12:22:56.604Z,36.20
2018-07-02T12:25:25.084Z,36.70
2018-07-02T12:27:53.591Z,36.90
2018-07-02T12:30:22.112Z,36.10
2018-07-02T12:32:50.773Z,36.10
2018-07-02T12:35:19.498Z,35.60
2018-07-02T12:37:48.248Z,38.50
2018-07-02T12:40:17.407Z,35.80
2018-07-02T12:42:47.797Z,35.60
2018-07-02T12:45:16.504Z,34.70
2018-07-02T12:47:45.115Z,35.20
2018-07-02T12:50:13.722Z,34.50
2018-07-02T12:52:42.179Z,35.00
2018-07-02T12:55:10.677Z,32.80
2018-07-02T12:57:39.226Z,33.10
2018-07-02T13:00:07.698Z,32.10
2018-07-02T13:02:36.173Z,32.90
2018-07-02T13:05:04.758Z,31.30
2018-07-02T13:10:01.430Z,33.50
2018-07-02T13:12:29.908Z,35.20
2018-07-02T13:14:58.411Z,33.50
2018-07-02T13:17:26.899Z,32.90
2018-07-02T13:19:55.379Z,34.10
2018-07-02T13:22:23.915Z,33.70
2018-07-02T13:24:52.912Z,33.90
2018-07-02T13:27:21.582Z,32.20
2018-07-02T13:29:50.005Z,33.60
2018-07-02T13:32:18.530Z,31.90
2018-07-02T13:34:47.095Z,32.80
2018-07-02T13:37:15.691Z,35.10
2018-07-02T13:39:44.210Z,36.80
2018-07-02T13:42:12.919Z,35.20
2018-07-02T13:44:41.524Z,36.40
2018-07-02T13:47:10.120Z,34.70
2018-07-02T13:49:38.678Z,33.50
2018-07-02T13:52:07.187Z,32.10
2018-07-02T13:54:35.690Z,31.60
2018-07-02T13:57:04.424Z,32.40
2018-07-02T13:59:32.927Z,31.90
2018-07-02T14:02:01.390Z,34.00
2018-07-02T14:04:29.869Z,32.50
2018-07-02T14:06:59.494Z,30.20
2018-07-02T14:09:27.979Z,29.70
2018-07-02T14:11:56.497Z,33.20
2018-07-02T14:14:25.059Z,33.80
2018-07-02T14:16:54.568Z,32.50
2018-07-02T14:19:23.234Z,32.90
2018-07-02T14:21:51.763Z,30.20
2018-07-02T14:24:20.257Z,31.00
2018-07-02T14:26:48.850Z,30.70
2018-07-02T14:29:17.301Z,30.20
2018-07-02T14:31:45.793Z,29.30
2018-07-02T14:34:14.302Z,30.00
2018-07-02T14:36:42.815Z,31.20
2018-07-02T14:39:12.764Z,29.50
2018-07-02T14:41:41.571Z,30.10
2018-07-02T14:44:10.094Z,29.90
2018-07-02T14:46:38.751Z,31.60
2018-07-02T14:49:07.278Z,32.90
2018-07-02T14:51:35.794Z,30.90
2018-07-02T14:54:04.301Z,31.00
2018-07-02T14:56:32.889Z,30.30
2018-07-02T14:59:01.410Z,33.70
2018-07-02T15:01:30.023Z,35.50
2018-07-02T15:03:58.676Z,35.40
2018-07-02T15:06:27.217Z,34.50
2018-07-02T15:08:55.738Z,34.40
2018-07-02T15:11:24.313Z,35.10
2018-07-02T15:13:53.486Z,37.00
2018-07-02T15:16:21.913Z,38.60
2018-07-02T15:18:50.471Z,37.90
2018-07-02T15:21:18.980Z,37.90
2018-07-02T15:23:47.590Z,39.20
2018-07-02T15:26:16.077Z,39.90
2018-07-02T15:28:44.529Z,40.40
2018-07-02T15:31:13.020Z,39.70
2018-07-02T15:33:41.518Z,39.40
2018-07-02T15:45:20.869Z,42.20
2018-07-02T15:47:49.381Z,40.70
2018-07-02T15:50:17.895Z,40.80
2018-07-02T15:52:46.471Z,41.30
2018-07-02T15:55:14.927Z,41.60
2018-07-02T15:57:43.505Z,41.60
2018-07-02T16:00:12.147Z,41.70
2018-07-02T16:02:40.611Z,42.60
2018-07-02T16:05:09.087Z,44.10
2018-07-02T16:07:37.615Z,42.10
2018-07-02T16:10:06.070Z,41.50
2018-07-02T16:12:34.601Z,41.80
2018-07-02T16:15:03.163Z,41.80
2018-07-02T16:17:31.675Z,40.10
2018-07-02T16:20:00.153Z,42.60
2018-07-02T16:22:28.663Z,42.30
2018-07-02T16:24:57.136Z,43.90
2018-07-02T16:27:25.689Z,42.00
2018-07-02T16:32:22.279Z,43.20
2018-07-02T16:34:50.783Z,42.60
2018-07-02T16:37:19.278Z,42.80
2018-07-02T16:39:47.742Z,43.20
2018-07-02T16:42:16.183Z,43.30
2018-07-02T16:44:44.682Z,43.60
2018-07-02T16:47:13.106Z,42.00
2018-07-02T16:49:41.569Z,42.80
2018-07-02T16:52:10.009Z,42.20
2018-07-02T16:54:38.523Z,41.70
2018-07-02T16:57:06.975Z,41.60
2018-07-02T16:59:35.440Z,42.10
2018-07-02T17:02:04.318Z,42.60
2018-07-02T17:07:01.153Z,42.40
2018-07-02T17:09:30.416Z,43.30
2018-07-02T17:11:58.877Z,44.60
2018-07-02T17:14:28.875Z,44.70
2018-07-02T17:16:57.381Z,44.40
2018-07-02T17:19:25.845Z,45.60
2018-07-02T17:21:56.810Z,44.80
2018-07-02T17:24:25.306Z,45.20
2018-07-02T17:26:53.778Z,45.00
2018-07-02T17:29:22.425Z,44.80
2018-07-02T17:31:50.867Z,45.40
2018-07-02T17:34:19.961Z,44.60
2018-07-02T17:36:48.958Z,44.70
2018-07-02T17:39:17.420Z,44.60
2018-07-02T17:41:45.902Z,45.00
2018-07-02T17:44:14.393Z,45.40
2018-07-02T17:46:42.893Z,45.10
2018-07-02T17:49:15.364Z,45.80
2018-07-02T17:51:43.975Z,46.20
2018-07-02T17:54:12.472Z,45.90
2018-07-02T17:56:40.970Z,46.40
2018-07-02T17:59:09.442Z,46.90
2018-07-02T18:01:38.027Z,46.80
2018-07-02T18:04:06.791Z,47.20
2018-07-02T18:06:35.831Z,47.50
2018-07-02T18:09:07.023Z,47.50
2018-07-02T18:11:35.478Z,48.70
2018-07-02T18:14:06.595Z,48.70
2018-07-02T18:16:35.137Z,48.50
2018-07-02T18:19:03.958Z,48.50
2018-07-02T18:21:32.467Z,48.80
2018-07-02T18:24:00.920Z,48.10
2018-07-02T18:26:29.407Z,49.20
2018-07-02T18:28:57.892Z,49.00
2018-07-02T18:31:26.378Z,49.60
2018-07-02T18:33:54.858Z,49.40
2018-07-02T18:36:23.338Z,49.10
2018-07-02T18:38:51.818Z,49.60
2018-07-02T18:41:20.290Z,50.70
2018-07-02T18:43:48.775Z,50.70
2018-07-02T18:46:17.254Z,50.70
2018-07-02T18:48:45.768Z,50.20
2018-07-02T18:51:14.235Z,50.20
2018-07-02T18:53:42.766Z,50.60
2018-07-02T18:56:11.242Z,49.90
2018-07-02T18:58:39.698Z,49.70
2018-07-02T19:01:09.054Z,49.60
2018-07-02T19:03:38.266Z,49.80
2018-07-02T19:06:06.743Z,50.40
2018-07-02T19:08:35.527Z,50.00
2018-07-02T19:11:04.097Z,49.60
2018-07-02T19:13:32.606Z,49.60
2018-07-02T19:16:01.410Z,49.50
2018-07-02T19:18:29.927Z,49.70
2018-07-02T19:20:58.434Z,50.50
2018-07-02T19:23:26.899Z,51.00
2018-07-02T19:25:55.850Z,50.00
2018-07-02T19:28:24.686Z,51.10
2018-07-02T19:30:53.166Z,51.40
2018-07-02T19:33:21.578Z,51.40
2018-07-02T19:35:50.083Z,50.00
2018-07-02T19:38:18.531Z,51.10
2018-07-02T19:40:47.054Z,51.00
2018-07-02T19:43:15.537Z,50.90
2018-07-02T19:45:44.018Z,51.00
2018-07-02T19:48:12.492Z,50.70
2018-07-02T19:50:40.989Z,51.70
2018-07-02T19:53:09.456Z,52.20
2018-07-02T19:55:38.148Z,54.10
2018-07-02T19:58:07.588Z,53.20
2018-07-02T20:00:36.053Z,52.50
2018-07-02T20:03:04.528Z,52.60
2018-07-02T20:05:33.007Z,53.10
2018-07-02T20:08:01.475Z,53.00
2018-07-02T20:10:30.089Z,52.90
2018-07-02T20:12:59.068Z,53.90
2018-07-02T20:15:27.509Z,53.60
2018-07-02T20:17:55.957Z,53.90
2018-07-02T20:20:24.530Z,53.80
2018-07-02T20:22:52.961Z,53.80
2018-07-02T20:25:21.388Z,53.30
2018-07-02T20:27:49.870Z,54.50
2018-07-02T20:30:18.353Z,54.50
2018-07-02T20:32:46.807Z,55.20
2018-07-02T20:35:15.774Z,55.00
2018-07-02T20:37:44.288Z,55.40
2018-07-02T20:40:12.917Z,55.50
2018-07-02T20:42:41.472Z,55.30
2018-07-02T20:45:10.141Z,55.80
2018-07-02T20:47:38.639Z,56.10
2018-07-02T20:50:07.151Z,55.10
2018-07-02T20:52:35.624Z,56.10
2018-07-02T20:55:04.680Z,55.20
2018-07-02T20:57:33.243Z,55.10
2018-07-02T21:00:02.155Z,54.90
2018-07-02T21:02:30.586Z,54.70
2018-07-02T21:04:59.062Z,55.30
2018-07-02T21:07:27.527Z,54.70
2018-07-02T21:09:55.992Z,54.80
2018-07-02T21:12:24.588Z,55.50
2018-07-02T21:14:53.020Z,55.80
2018-07-02T21:17:21.480Z,55.70
2018-07-02T21:19:49.933Z,56.00
2018-07-02T21:22:18.393Z,55.30
2018-07-02T21:24:46.844Z,56.80
2018-07-02T21:27:15.323Z,55.70
2018-07-02T21:29:44.663Z,56.70
2018-07-02T21:32:13.091Z,56.30
2018-07-02T21:34:41.561Z,56.50
2018-07-02T21:37:10.083Z,56.50
2018-07-02T21:39:38.577Z,56.50
2018-07-02T21:42:07.070Z,57.60
2018-07-02T21:44:35.517Z,58.10
2018-07-02T21:47:04.000Z,56.80
2018-07-02T21:49:32.467Z,57.10
2018-07-02T21:52:01.023Z,57.60
2018-07-02T21:54:29.590Z,57.70
2018-07-02T21:56:58.083Z,57.10
2018-07-02T21:59:26.504Z,58.10
2018-07-02T22:01:54.987Z,57.40
2018-07-02T22:04:23.452Z,58.80
2018-07-02T22:06:51.889Z,58.70
2018-07-02T22:09:20.367Z,58.90
2018-07-02T22:11:48.837Z,59.30
2018-07-02T22:14:17.279Z,59.70
2018-07-02T22:16:45.748Z,59.50
2018-07-02T22:19:14.245Z,60.60
2018-07-02T22:21:42.682Z,59.80
2018-07-02T22:24:11.137Z,60.10
2018-07-02T22:26:39.601Z,59.60
2018-07-02T22:29:08.063Z,59.60
2018-07-02T22:31:36.493Z,59.80
2018-07-02T22:34:05.124Z,60.20
2018-07-02T22:36:33.553Z,60.70
2018-07-02T22:39:02.025Z,60.80
2018-07-02T22:41:30.515Z,61.30
2018-07-02T22:43:58.987Z,61.90
2018-07-02T22:46:27.429Z,61.60
2018-07-02T22:48:55.877Z,61.20
2018-07-02T22:51:24.318Z,62.80
2018-07-02T22:53:53.033Z,61.70
2018-07-02T22:56:21.550Z,62.40
2018-07-02T22:58:49.969Z,62.20
2018-07-02T23:01:18.399Z,62.30
2018-07-02T23:03:46.836Z,62.70
2018-07-02T23:06:15.279Z,63.50
2018-07-02T23:08:43.929Z,63.30
2018-07-02T23:11:12.578Z,63.40
2018-07-02T23:13:41.027Z,63.00
2018-07-02T23:16:09.475Z,62.90
2018-07-02T23:18:37.931Z,62.90
2018-07-02T23:21:06.434Z,63.60
2018-07-02T23:23:34.903Z,63.50
2018-07-02T23:26:03.342Z,63.40
2018-07-02T23:28:31.820Z,63.60
2018-07-02T23:31:00.249Z,63.90
2018-07-02T23:33:28.710Z,63.70
2018-07-02T23:35:57.174Z,63.70
2018-07-02T23:38:25.642Z,64.00
2018-07-02T23:40:54.069Z,64.10
2018-07-02T23:43:22.560Z,64.90
2018-07-02T23:45:51.016Z,64.40
2018-07-02T23:48:19.447Z,64.90
2018-07-02T23:50:47.935Z,64.80
2018-07-02T23:53:16.402Z,65.20
2018-07-02T23:55:44.872Z,65.20
2018-07-02T23:58:13.317Z,66.00
